Time;durP1;ratioP1;P1;durP2;ratioP2;P2;SDS_P1;SDS_P2;PMS_P1;PMS_P2;Temp;Humidity;BMP_temperature;BMP_pressure;BME280_temperature;BME280_humidity;BME280_pressure;Samples;Min_cycle;Max_cycle;Signal;HPM_P1;HPM_P2
2023/11/05 00:01:29;;;;;;;2.33;2.13;;;;;;;13.11;100.00;98871.88;5076839;28;20114;-64
2023/11/05 00:03:55;;;;;;;2.63;1.85;;;;;;;13.10;100.00;98878.22;5075688;28;20063;-66
2023/11/05 00:06:20;;;;;;;1.88;1.77;;;;;;;13.10;100.00;98888.03;5077378;28;20036;-67
2023/11/05 00:08:45;;;;;;;3.03;1.83;;;;;;;13.08;100.00;98896.22;5076616;28;20032;-67
2023/11/05 00:11:11;;;;;;;2.75;1.50;;;;;;;13.05;100.00;98909.91;5077414;28;20036;-67
2023/11/05 00:13:37;;;;;;;4.13;1.90;;;;;;;13.03;100.00;98913.75;5077090;28;20289;-67
2023/11/05 00:16:02;;;;;;;3.22;1.60;;;;;;;13.10;100.00;98909.28;5076891;28;20242;-64
2023/11/05 00:18:28;;;;;;;2.80;1.85;;;;;;;13.10;100.00;98926.06;5077991;28;20063;-67
2023/11/05 00:20:54;;;;;;;3.05;1.83;;;;;;;12.06;98.28;98941.09;5076846;28;20037;-64
2023/11/05 00:23:20;;;;;;;3.20;1.88;;;;;;;11.89;100.00;98952.97;5077147;28;20349;-67
2023/11/05 00:25:45;;;;;;;3.30;2.20;;;;;;;11.66;100.00;98952.31;5075983;28;20392;-64
2023/11/05 00:28:10;;;;;;;4.25;2.90;;;;;;;11.75;100.00;98943.22;5076443;28;20040;-64
2023/11/05 00:30:36;;;;;;;3.92;2.40;;;;;;;11.90;100.00;98925.44;5075582;28;20028;-64
2023/11/05 00:33:01;;;;;;;3.97;2.33;;;;;;;11.96;100.00;98926.50;5076311;28;20029;-64
2023/11/05 00:35:27;;;;;;;4.03;2.05;;;;;;;12.01;100.00;98924.94;5076063;28;20349;-67
2023/11/05 00:37:52;;;;;;;2.38;2.17;;;;;;;11.95;100.00;98907.13;5076649;28;20365;-67
2023/11/05 00:40:18;;;;;;;3.50;2.10;;;;;;;12.07;100.00;98926.81;5076055;28;20032;-64
2023/11/05 00:42:43;;;;;;;3.35;2.40;;;;;;;11.97;100.00;98934.28;5076454;28;20357;-66
2023/11/05 00:45:08;;;;;;;5.80;2.53;;;;;;;11.90;100.00;98932.59;5075348;28;20048;-63
2023/11/05 00:47:34;;;;;;;3.42;2.40;;;;;;;11.90;100.00;98920.13;5075855;28;20040;-63
2023/11/05 00:50:00;;;;;;;5.60;2.45;;;;;;;12.09;100.00;98930.09;5075253;28;20048;-64
2023/11/05 00:52:25;;;;;;;3.55;2.05;;;;;;;12.22;100.00;98920.59;5075959;28;20284;-64
2023/11/05 00:54:51;;;;;;;3.47;2.05;;;;;;;12.07;100.00;98924.16;5075975;28;20102;-67
2023/11/05 00:57:17;;;;;;;3.22;2.08;;;;;;;12.12;100.00;98926.25;5076053;28;20032;-64
2023/11/05 00:59:43;;;;;;;2.95;2.05;;;;;;;12.22;100.00;98916.13;5076435;28;20329;-64
2023/11/05 01:02:08;;;;;;;4.78;2.35;;;;;;;12.26;100.00;98916.56;5075689;28;20063;-67
2023/11/05 01:04:34;;;;;;;2.78;1.73;;;;;;;12.40;100.00;98912.97;5074678;28;20037;-67
2023/11/05 01:06:59;;;;;;;3.55;2.22;;;;;;;12.50;100.00;98907.34;5076990;28;20093;-67
2023/11/05 01:09:25;;;;;;;3.45;1.80;;;;;;;12.48;100.00;98910.16;5075446;28;20041;-65
2023/11/05 01:11:50;;;;;;;2.78;1.90;;;;;;;12.56;100.00;98901.25;5075306;28;20069;-67
2023/11/05 01:14:16;;;;;;;4.53;2.45;;;;;;;12.63;100.00;98902.13;5075183;28;20356;-64
2023/11/05 01:16:41;;;;;;;2.38;1.70;;;;;;;12.69;99.29;98899.50;5075538;28;20252;-64
2023/11/05 01:19:06;;;;;;;2.40;1.90;;;;;;;12.72;99.38;98896.44;5074755;28;20037;-67
2023/11/05 01:21:32;;;;;;;2.45;2.00;;;;;;;12.75;98.35;98893.41;5075062;28;20042;-63
2023/11/05 01:23:57;;;;;;;2.35;1.80;;;;;;;12.47;97.66;98887.28;5075002;28;20053;-64
2023/11/05 01:26:23;;;;;;;2.63;1.73;;;;;;;12.43;94.69;98888.69;5075795;28;20070;-64
2023/11/05 01:28:48;;;;;;;2.60;1.90;;;;;;;12.37;96.02;98876.19;5075049;28;20082;-67
2023/11/05 01:31:15;;;;;;;3.15;1.85;;;;;;;12.40;97.75;98881.13;5075582;28;20070;-64
2023/11/05 01:33:40;;;;;;;3.45;1.65;;;;;;;12.35;98.00;98879.03;5074565;28;20107;-67
2023/11/05 01:36:06;;;;;;;1.65;1.50;;;;;;;12.30;97.24;98872.69;5075096;28;20100;-67
2023/11/05 01:38:32;;;;;;;3.47;1.88;;;;;;;11.79;97.74;98873.72;5076123;28;20037;-64
2023/11/05 01:40:57;;;;;;;3.67;1.90;;;;;;;11.58;98.57;98868.41;5074870;28;20203;-67
2023/11/05 01:43:23;;;;;;;3.63;2.30;;;;;;;11.61;98.56;98862.72;5075463;28;20044;-67
2023/11/05 01:45:48;;;;;;;3.78;2.92;;;;;;;11.63;98.35;98850.09;5074863;28;20369;-64
2023/11/05 01:48:14;;;;;;;4.60;2.65;;;;;;;11.62;99.24;98853.75;5075214;28;20051;-64
2023/11/05 01:50:41;;;;;;;5.97;2.88;;;;;;;11.58;99.76;98862.28;5075046;28;20067;-63
2023/11/05 01:53:07;;;;;;;4.80;2.92;;;;;;;11.31;100.00;98845.25;5075453;28;20036;-64
2023/11/05 01:55:33;;;;;;;4.72;3.60;;;;;;;11.61;100.00;98875.16;5075572;28;20306;-64
2023/11/05 01:57:58;;;;;;;11.60;6.18;;;;;;;11.56;99.46;98873.06;5075111;28;20028;-67
2023/11/05 02:00:24;;;;;;;9.25;4.40;;;;;;;11.48;100.00;98863.41;5075768;28;20051;-63
2023/11/05 02:02:50;;;;;;;16.17;7.60;;;;;;;11.35;100.00;98879.16;5074298;28;20044;-67
2023/11/05 02:05:16;;;;;;;5.38;3.25;;;;;;;11.19;100.00;98876.75;5074299;28;20044;-63
2023/11/05 02:07:43;;;;;;;15.50;9.13;;;;;;;10.86;100.00;98884.28;5075119;28;20060;-66
2023/11/05 02:10:09;;;;;;;9.48;5.07;;;;;;;10.96;100.00;98874.22;5074846;28;20036;-64
2023/11/05 02:12:35;;;;;;;5.63;3.67;;;;;;;11.14;100.00;98879.94;5075302;28;20131;-66
2023/11/05 02:15:00;;;;;;;6.63;3.88;;;;;;;11.20;100.00;98881.84;5075394;28;20043;-63
2023/11/05 02:17:26;;;;;;;5.60;3.50;;;;;;;11.27;100.00;98873.97;5076767;28;20032;-67
2023/11/05 02:19:52;;;;;;;6.70;3.83;;;;;;;11.33;100.00;98880.34;5078264;28;20249;-67
2023/11/05 02:22:20;;;;;;;5.75;3.50;;;;;;;11.39;100.00;98887.56;5070882;28;20103;-67
2023/11/05 02:24:46;;;;;;;4.82;3.78;;;;;;;11.38;100.00;98892.03;5078583;28;20075;-64
2023/11/05 02:27:12;;;;;;;6.70;4.35;;;;;;;11.42;100.00;98888.00;5079401;28;20212;-67
2023/11/05 02:29:38;;;;;;;7.45;4.68;;;;;;;11.43;100.00;98879.03;5078928;28;20035;-67
2023/11/05 02:32:05;;;;;;;7.10;4.40;;;;;;;11.31;100.00;98877.88;5078868;28;20028;-67
2023/11/05 02:34:31;;;;;;;4.15;3.17;;;;;;;11.25;100.00;98886.59;5078347;28;20035;-66
2023/11/05 02:36:58;;;;;;;3.47;2.60;;;;;;;11.27;100.00;98889.06;5078631;28;20312;-64
2023/11/05 02:39:23;;;;;;;5.25;3.28;;;;;;;11.23;100.00;98898.38;5078751;28;20325;-63
2023/11/05 02:41:49;;;;;;;3.88;2.60;;;;;;;11.37;100.00;98887.75;5078239;28;20036;-64
2023/11/05 02:44:14;;;;;;;5.00;2.80;;;;;;;11.47;100.00;98903.38;5078544;28;20063;-64
2023/11/05 02:46:40;;;;;;;4.30;2.40;;;;;;;11.49;100.00;98902.16;5078205;28;20112;-64
2023/11/05 02:49:08;;;;;;;3.55;2.88;;;;;;;11.59;100.00;98901.84;5077824;28;20048;-65
2023/11/05 02:51:34;;;;;;;5.35;2.47;;;;;;;11.55;100.00;98911.19;5078316;28;20338;-64
2023/11/05 02:54:00;;;;;;;3.53;2.55;;;;;;;11.66;100.00;98902.75;5077744;28;20059;-67
2023/11/05 02:56:25;;;;;;;2.65;2.15;;;;;;;11.66;100.00;98912.53;5079236;28;20314;-64
2023/11/05 02:58:51;;;;;;;3.30;1.90;;;;;;;11.41;100.00;98914.69;5078219;28;20048;-67
2023/11/05 03:01:24;;;;;;;2.75;1.98;;;;;;;11.43;100.00;98921.44;5078661;28;20360;-64
2023/11/05 03:03:51;;;;;;;4.10;2.47;;;;;;;11.54;100.00;98922.81;5077060;28;20033;-64
2023/11/05 03:06:17;;;;;;;3.15;2.20;;;;;;;11.52;100.00;98925.66;5075364;28;20032;-64
2023/11/05 03:08:43;;;;;;;2.97;2.58;;;;;;;11.47;100.00;98930.69;5076386;28;20077;-63
2023/11/05 03:11:08;;;;;;;2.35;2.05;;;;;;;11.50;100.00;98940.09;5077708;28;20032;-66
2023/11/05 03:13:34;;;;;;;2.42;1.90;;;;;;;11.54;99.77;98938.72;5077681;28;20048;-64
2023/11/05 03:15:59;;;;;;;3.45;2.03;;;;;;;11.55;99.04;98937.72;5074528;28;20136;-67
2023/11/05 03:18:26;;;;;;;4.07;2.45;;;;;;;11.56;99.66;98935.88;5074136;28;20040;-64
2023/11/05 03:20:52;;;;;;;3.80;2.42;;;;;;;11.55;99.54;98932.41;5077794;28;20055;-67
2023/11/05 03:23:18;;;;;;;2.95;2.22;;;;;;;11.55;99.91;98932.41;5077195;28;20417;-64
2023/11/05 03:25:43;;;;;;;2.92;2.50;;;;;;;11.55;100.00;98919.16;5078634;28;20043;-67
2023/11/05 03:28:09;;;;;;;3.65;2.20;;;;;;;11.39;100.00;98938.72;5076788;28;20074;-64
2023/11/05 03:30:34;;;;;;;3.47;2.22;;;;;;;11.34;100.00;98937.66;5076925;28;20028;-64
2023/11/05 03:33:00;;;;;;;3.55;2.67;;;;;;;11.25;100.00;98933.47;5078078;28;20085;-64
2023/11/05 03:35:25;;;;;;;5.97;2.40;;;;;;;11.20;100.00;98926.06;5078752;28;20065;-67
2023/11/05 03:37:51;;;;;;;5.25;2.78;;;;;;;11.09;100.00;98924.72;5079004;28;20428;-67
2023/11/05 03:40:16;;;;;;;3.38;2.20;;;;;;;11.05;100.00;98919.97;5078192;28;20045;-67
2023/11/05 03:42:42;;;;;;;3.25;2.20;;;;;;;10.82;100.00;98925.41;5077703;28;20215;-64
2023/11/05 03:45:07;;;;;;;3.60;2.40;;;;;;;10.57;100.00;98935.44;5079623;28;20045;-66
2023/11/05 03:47:33;;;;;;;3.22;2.35;;;;;;;10.64;100.00;98941.66;5078169;28;20040;-63
2023/11/05 03:49:58;;;;;;;5.28;2.50;;;;;;;10.67;100.00;98940.47;5077647;28;20074;-67
2023/11/05 03:52:24;;;;;;;2.95;2.30;;;;;;;10.75;100.00;98945.66;5077407;28;20081;-64
2023/11/05 03:54:51;;;;;;;5.72;2.70;;;;;;;10.82;100.00;98946.56;5077014;28;20036;-64
2023/11/05 03:57:16;;;;;;;3.80;2.28;;;;;;;10.84;100.00;98955.97;5078539;28;20032;-66
2023/11/05 03:59:41;;;;;;;4.45;2.65;;;;;;;11.00;100.00;98962.91;5076621;28;20494;-66
2023/11/05 04:02:07;;;;;;;3.90;2.30;;;;;;;11.12;100.00;98969.41;5076352;28;20385;-64
2023/11/05 04:04:32;;;;;;;3.05;2.08;;;;;;;11.23;100.00;98962.81;5076110;28;20052;-63
2023/11/05 04:06:58;;;;;;;2.30;1.92;;;;;;;11.31;99.58;98956.56;5076303;28;20047;-66
2023/11/05 04:09:24;;;;;;;4.82;2.90;;;;;;;11.36;99.07;98962.97;5076313;28;20045;-67
2023/11/05 04:11:49;;;;;;;4.97;2.05;;;;;;;11.36;99.75;98959.50;5076813;28;20037;-67
2023/11/05 04:14:15;;;;;;;3.20;2.08;;;;;;;11.24;98.29;98960.97;5076182;28;20063;-64
2023/11/05 04:16:41;;;;;;;3.17;2.45;;;;;;;11.10;97.27;98967.94;5076271;28;20032;-63
2023/11/05 04:19:10;;;;;;;3.35;2.10;;;;;;;10.87;96.84;98965.38;5076900;28;20482;-64
2023/11/05 04:21:35;;;;;;;4.05;2.75;;;;;;;10.88;97.97;98967.84;5075927;28;20025;-63
2023/11/05 04:24:01;;;;;;;5.80;2.65;;;;;;;10.92;98.07;98964.84;5075733;28;20051;-63
2023/11/05 04:26:26;;;;;;;5.10;2.80;;;;;;;10.89;97.88;98963.38;5076918;28;20032;-63
2023/11/05 04:28:51;;;;;;;3.25;2.70;;;;;;;10.90;99.51;98966.84;5075947;28;20260;-66
2023/11/05 04:31:17;;;;;;;3.30;2.70;;;;;;;10.86;100.00;98961.91;5075889;28;20031;-67
2023/11/05 04:33:43;;;;;;;6.45;2.83;;;;;;;10.92;100.00;98973.59;5074487;28;20040;-64
2023/11/05 04:36:09;;;;;;;4.10;2.58;;;;;;;10.96;99.14;98969.59;5076117;28;20040;-64
2023/11/05 04:38:36;;;;;;;3.45;2.75;;;;;;;10.77;100.00;98965.66;5076085;28;20063;-63
2023/11/05 04:41:01;;;;;;;6.03;2.95;;;;;;;10.83;100.00;98972.06;5075451;28;20048;-64
2023/11/05 04:43:27;;;;;;;6.13;3.97;;;;;;;10.70;100.00;98979.81;5076232;28;20488;-66
2023/11/05 04:45:52;;;;;;;7.18;4.85;;;;;;;10.70;100.00;98983.28;5075523;28;20060;-67
2023/11/05 04:48:18;;;;;;;5.20;4.70;;;;;;;10.64;100.00;98976.06;5075545;28;20338;-66
2023/11/05 04:50:43;;;;;;;5.05;3.78;;;;;;;10.57;100.00;98974.31;5075640;28;20065;-66
2023/11/05 04:53:08;;;;;;;6.25;3.80;;;;;;;10.44;100.00;98982.88;5075499;28;20035;-67
2023/11/05 04:55:34;;;;;;;7.80;4.15;;;;;;;10.29;100.00;98977.53;5076076;28;20036;-67
2023/11/05 04:57:59;;;;;;;6.13;3.58;;;;;;;9.99;100.00;98981.88;5075004;28;20324;-67
2023/11/05 05:00:25;;;;;;;4.93;3.10;;;;;;;9.98;100.00;98987.34;5066969;28;20041;-67
2023/11/05 05:02:50;;;;;;;3.92;3.10;;;;;;;10.06;100.00;98987.28;5066363;28;20028;-66
2023/11/05 05:05:16;;;;;;;6.10;3.20;;;;;;;10.12;100.00;98987.38;5074889;28;20040;-66
2023/11/05 05:07:41;;;;;;;6.60;4.80;;;;;;;10.24;100.00;98988.66;5075808;28;20101;-66
2023/11/05 05:10:07;;;;;;;9.48;4.03;;;;;;;10.36;100.00;98996.97;5076059;28;20245;-64
2023/11/05 05:12:33;;;;;;;4.10;3.30;;;;;;;10.37;100.00;98995.16;5075713;28;20101;-63
2023/11/05 05:15:03;;;;;;;6.32;3.70;;;;;;;10.12;100.00;98997.97;5076163;28;20032;-67
2023/11/05 05:17:28;;;;;;;6.82;4.00;;;;;;;10.27;100.00;99013.09;5075694;28;20037;-66
2023/11/05 05:19:54;;;;;;;3.53;2.88;;;;;;;10.47;100.00;98999.22;5075641;28;20036;-67
2023/11/05 05:22:19;;;;;;;6.03;4.07;;;;;;;10.51;100.00;99012.91;5075436;28;20279;-64
2023/11/05 05:24:45;;;;;;;4.43;2.90;;;;;;;10.46;100.00;99023.22;5075247;28;20334;-63
2023/11/05 05:27:11;;;;;;;4.72;3.35;;;;;;;10.35;100.00;99019.16;5075532;28;20031;-64
2023/11/05 05:29:36;;;;;;;7.97;7.18;;;;;;;10.35;100.00;99019.16;5076578;28;20058;-64
2023/11/05 05:32:02;;;;;;;5.20;3.03;;;;;;;10.26;100.00;99012.28;5077061;28;20103;-65
2023/11/05 05:34:28;;;;;;;4.43;3.03;;;;;;;10.36;100.00;99009.38;5075923;28;20041;-63
2023/11/05 05:36:53;;;;;;;2.65;2.40;;;;;;;10.37;100.00;99016.31;5075636;28;20042;-65
2023/11/05 05:39:19;;;;;;;4.00;2.67;;;;;;;10.38;100.00;99032.03;5075495;28;20045;-64
2023/11/05 05:41:44;;;;;;;6.75;3.70;;;;;;;10.35;100.00;99021.78;5075050;28;20037;-66
2023/11/05 05:44:11;;;;;;;3.95;2.70;;;;;;;10.41;100.00;99029.06;5075713;28;20057;-64
2023/11/05 05:46:37;;;;;;;4.18;2.50;;;;;;;10.36;100.00;99017.31;5076980;28;20051;-63
2023/11/05 05:49:02;;;;;;;4.65;3.10;;;;;;;10.47;100.00;99014.28;5074501;28;20273;-63
2023/11/05 05:51:28;;;;;;;4.57;3.25;;;;;;;10.59;100.00;99022.63;5076721;28;20322;-66
2023/11/05 05:53:53;;;;;;;5.10;4.30;;;;;;;10.71;100.00;99026.47;5079297;28;20033;-64
2023/11/05 05:56:18;;;;;;;3.15;2.53;;;;;;;10.67;100.00;99022.53;5080038;28;20043;-67
2023/11/05 05:58:44;;;;;;;6.30;5.70;;;;;;;10.87;100.00;99008.59;5079815;28;20055;-63
2023/11/05 06:01:10;;;;;;;4.97;3.28;;;;;;;10.77;100.00;99000.09;5079333;28;20029;-63
2023/11/05 06:03:35;;;;;;;2.88;2.38;;;;;;;10.73;100.00;99003.28;5079060;28;20535;-67
2023/11/05 06:06:01;;;;;;;3.17;2.30;;;;;;;10.82;100.00;99010.13;5078436;28;20032;-64
2023/11/05 06:08:26;;;;;;;3.40;2.38;;;;;;;10.74;100.00;99012.88;5078344;28;20349;-63
2023/11/05 06:10:52;;;;;;;4.85;2.58;;;;;;;10.89;100.00;99000.47;5078821;28;20046;-64
2023/11/05 06:13:20;;;;;;;3.50;3.05;;;;;;;11.11;100.00;99004.84;5078997;28;20056;-66
2023/11/05 06:15:48;;;;;;;6.35;4.82;;;;;;;11.34;100.00;99007.38;5078751;28;20051;-63
2023/11/05 06:18:14;;;;;;;6.60;5.43;;;;;;;11.49;100.00;99002.09;5078736;28;20040;-67
2023/11/05 06:20:40;;;;;;;6.35;5.72;;;;;;;11.69;100.00;99000.50;5078259;28;20028;-67
2023/11/05 06:23:05;;;;;;;6.25;4.70;;;;;;;11.71;100.00;99014.38;5078520;28;20043;-64
2023/11/05 06:25:31;;;;;;;4.25;3.85;;;;;;;11.83;100.00;99018.22;5078932;28;20033;-67
2023/11/05 06:27:56;;;;;;;4.57;4.03;;;;;;;12.03;100.00;99001.69;5078769;28;20142;-64
2023/11/05 06:30:22;;;;;;;3.92;3.50;;;;;;;12.30;100.00;99010.72;5078209;28;20070;-66
2023/11/05 06:32:48;;;;;;;5.32;3.00;;;;;;;12.50;99.83;99013.56;5077775;28;20044;-63
2023/11/05 06:35:13;;;;;;;4.10;3.30;;;;;;;12.65;99.21;99004.50;5077780;28;20055;-66
2023/11/05 06:37:39;;;;;;;5.15;2.50;;;;;;;12.72;98.51;98993.91;5078104;28;20119;-66
2023/11/05 06:40:06;;;;;;;3.28;2.10;;;;;;;12.83;97.66;98989.91;5078699;28;20046;-64
2023/11/05 06:42:31;;;;;;;4.05;2.80;;;;;;;12.99;97.56;98978.97;5078139;28;20060;-66
2023/11/05 06:44:57;;;;;;;4.18;2.92;;;;;;;12.98;97.96;98969.34;5077892;28;20053;-63
2023/11/05 06:47:23;;;;;;;2.20;1.50;;;;;;;12.68;100.00;98974.88;5078198;28;20310;-66
2023/11/05 06:49:48;;;;;;;1.77;1.58;;;;;;;12.83;100.00;98969.47;5078933;28;20044;-63
2023/11/05 06:52:14;;;;;;;2.33;1.80;;;;;;;12.97;100.00;98981.00;5078589;28;20031;-67
2023/11/05 06:54:41;;;;;;;2.50;1.40;;;;;;;13.13;100.00;98983.31;5078469;28;20041;-64
2023/11/05 06:57:06;;;;;;;2.20;1.70;;;;;;;12.99;100.00;98973.63;5078541;28;20103;-64
2023/11/05 06:59:32;;;;;;;1.77;1.67;;;;;;;13.24;100.00;98980.13;5077990;28;20230;-67
2023/11/05 07:01:57;;;;;;;2.50;2.00;;;;;;;13.45;100.00;98963.25;5077068;28;20040;-64
2023/11/05 07:04:23;;;;;;;1.92;1.70;;;;;;;13.62;100.00;98972.53;5077477;28;20048;-63
2023/11/05 07:06:49;;;;;;;2.63;2.22;;;;;;;13.69;98.77;98972.56;5078281;28;20036;-66
2023/11/05 07:09:15;;;;;;;3.90;2.60;;;;;;;13.87;99.57;98964.00;5078290;28;20333;-67
2023/11/05 07:11:40;;;;;;;3.10;2.75;;;;;;;13.77;100.00;98967.03;5078614;28;20036;-64
2023/11/05 07:14:06;;;;;;;3.42;2.90;;;;;;;13.80;100.00;98965.81;5077434;28;20078;-64
2023/11/05 07:16:32;;;;;;;5.10;2.85;;;;;;;14.04;100.00;98958.09;5077648;28;20369;-67
2023/11/05 07:18:57;;;;;;;3.95;3.03;;;;;;;14.01;99.96;98955.81;5077296;28;20316;-67
2023/11/05 07:21:23;;;;;;;3.95;2.75;;;;;;;13.86;100.00;98955.19;5077912;28;20043;-63
2023/11/05 07:23:49;;;;;;;5.13;4.22;;;;;;;13.72;100.00;98953.53;5077255;28;20036;-63
2023/11/05 07:26:15;;;;;;;3.30;2.40;;;;;;;13.72;100.00;98951.69;5077113;28;20037;-64
2023/11/05 07:28:42;;;;;;;4.32;2.95;;;;;;;14.02;100.00;98952.16;5078799;28;20357;-67
2023/11/05 07:31:07;;;;;;;3.25;2.83;;;;;;;14.12;100.00;98953.59;5077068;28;20028;-64
2023/11/05 07:33:34;;;;;;;4.50;2.60;;;;;;;14.19;100.00;98968.53;5077443;28;20047;-64
2023/11/05 07:36:00;;;;;;;3.38;2.50;;;;;;;14.38;100.00;98964.25;5077214;28;20051;-67
2023/11/05 07:38:26;;;;;;;3.25;2.50;;;;;;;14.56;99.90;98971.63;5077728;28;20028;-64
2023/11/05 07:40:52;;;;;;;2.70;2.10;;;;;;;14.64;100.00;98982.94;5077457;28;20123;-65
2023/11/05 07:43:18;;;;;;;2.63;2.20;;;;;;;14.73;100.00;98974.72;5077939;28;20045;-65
2023/11/05 07:45:43;;;;;;;3.70;2.33;;;;;;;14.54;100.00;98969.19;5078327;28;20118;-63
2023/11/05 07:48:09;;;;;;;4.43;2.40;;;;;;;14.66;100.00;98978.22;5078419;28;20205;-67
2023/11/05 07:50:34;;;;;;;4.53;2.47;;;;;;;14.92;99.73;98990.69;5077972;28;20044;-65
2023/11/05 07:53:00;;;;;;;4.13;2.35;;;;;;;15.12;100.00;98982.63;5077781;28;20389;-64
2023/11/05 07:55:25;;;;;;;3.97;2.50;;;;;;;15.23;97.63;98975.81;5077547;28;20039;-67
2023/11/05 07:57:52;;;;;;;4.38;2.35;;;;;;;15.19;98.27;98967.44;5077881;28;20335;-64
2023/11/05 08:00:18;;;;;;;3.25;2.30;;;;;;;14.94;97.32;98974.47;5077785;28;20055;-67
2023/11/05 08:02:45;;;;;;;2.47;2.15;;;;;;;14.55;97.56;98962.81;5076777;28;20027;-66
2023/11/05 08:05:11;;;;;;;4.07;2.20;;;;;;;14.47;98.48;98955.03;5077251;28;20063;-66
2023/11/05 08:07:36;;;;;;;3.08;2.75;;;;;;;14.40;97.90;98943.53;5076680;28;20040;-64
2023/11/05 08:10:06;;;;;;;5.72;2.90;;;;;;;14.43;99.62;98953.81;5077104;28;20040;-67
2023/11/05 08:12:32;;;;;;;3.33;2.65;;;;;;;14.64;99.18;98955.47;5076366;28;20322;-64
2023/11/05 08:14:58;;;;;;;3.63;2.50;;;;;;;14.77;98.50;98954.63;5075370;28;20242;-64
2023/11/05 08:17:23;;;;;;;2.88;2.10;;;;;;;14.91;97.04;98945.56;5076709;28;20038;-64
2023/11/05 08:19:49;;;;;;;3.42;1.80;;;;;;;14.90;93.94;98951.94;5075881;28;20049;-64
2023/11/05 08:22:16;;;;;;;2.53;2.08;;;;;;;15.05;92.24;98954.34;5076873;28;20047;-64
2023/11/05 08:24:44;;;;;;;2.65;1.58;;;;;;;15.07;93.66;98953.09;5074572;28;20048;-63
2023/11/05 08:27:10;;;;;;;2.13;1.80;;;;;;;15.18;90.40;98948.97;5075989;28;20085;-64
2023/11/05 08:29:43;;;;;;;3.05;1.70;;;;;;;15.25;91.44;98936.44;5075914;28;20233;-64
2023/11/05 08:32:09;;;;;;;2.38;2.03;;;;;;;15.23;92.09;98925.97;5076036;28;20036;-64
2023/11/05 08:34:35;;;;;;;2.38;1.30;;;;;;;15.09;88.61;98936.91;5075485;28;20108;-64
2023/11/05 08:37:01;;;;;;;3.28;1.48;;;;;;;15.21;89.90;98928.03;5076568;28;20033;-64
2023/11/05 08:39:27;;;;;;;2.00;1.70;;;;;;;15.42;92.44;98915.41;5076042;28;20147;-66
2023/11/05 08:41:53;;;;;;;1.10;0.90;;;;;;;15.44;88.02;98903.50;5075563;28;20344;-64
2023/11/05 08:44:19;;;;;;;1.63;1.33;;;;;;;15.20;88.12;98904.25;5074772;28;20071;-63
2023/11/05 08:46:44;;;;;;;2.67;1.50;;;;;;;14.93;89.02;98893.69;5074485;28;20032;-64
2023/11/05 08:49:10;;;;;;;2.17;1.33;;;;;;;15.02;89.62;98902.25;5074766;28;20532;-64
2023/11/05 08:51:35;;;;;;;2.35;1.40;;;;;;;15.16;89.13;98893.19;5075701;28;20058;-67
2023/11/05 08:54:01;;;;;;;1.40;1.30;;;;;;;15.14;89.59;98895.25;5075508;28;20038;-67
2023/11/05 08:56:26;;;;;;;2.47;1.55;;;;;;;14.90;90.49;98883.44;5077164;28;20028;-67
2023/11/05 08:58:52;;;;;;;2.53;1.63;;;;;;;15.06;89.91;98884.00;5074123;28;20043;-67
2023/11/05 09:01:18;;;;;;;2.40;1.77;;;;;;;15.08;90.84;98874.75;5074815;28;20025;-67
2023/11/05 09:03:48;;;;;;;4.32;1.52;;;;;;;14.87;92.99;98875.06;5075049;28;20082;-65
2023/11/05 09:06:13;;;;;;;2.67;1.67;;;;;;;14.72;91.91;98879.81;5074412;28;20040;-64
2023/11/05 09:08:39;;;;;;;1.83;1.40;;;;;;;14.75;93.20;98882.88;5074036;28;20048;-67
2023/11/05 09:11:06;;;;;;;1.88;1.05;;;;;;;14.63;92.46;98885.38;5073586;28;20419;-66
2023/11/05 09:13:31;;;;;;;3.25;1.73;;;;;;;14.66;92.55;98873.47;5073699;28;20051;-67
2023/11/05 09:15:56;;;;;;;1.70;1.20;;;;;;;14.73;94.02;98868.13;5073722;28;20032;-63
2023/11/05 09:18:22;;;;;;;4.53;1.35;;;;;;;14.69;92.65;98859.75;5074378;28;20024;-66
2023/11/05 09:20:47;;;;;;;1.85;1.55;;;;;;;14.76;95.75;98865.88;5073914;28;20025;-67
2023/11/05 09:23:13;;;;;;;2.13;1.42;;;;;;;14.73;96.99;98852.97;5075936;28;20035;-66
2023/11/05 09:25:38;;;;;;;1.98;1.30;;;;;;;14.84;94.91;98835.50;5074934;28;20230;-64
2023/11/05 09:28:05;;;;;;;1.80;1.50;;;;;;;14.97;95.61;98830.94;5075041;28;20036;-64
2023/11/05 09:30:30;;;;;;;2.38;1.90;;;;;;;15.00;95.86;98829.69;5075029;28;20358;-64
2023/11/05 09:32:56;;;;;;;3.20;2.10;;;;;;;15.05;100.00;98829.84;5075247;28;20042;-66
2023/11/05 09:35:21;;;;;;;2.78;1.92;;;;;;;15.06;100.00;98828.00;5075271;28;20043;-63
2023/11/05 09:37:47;;;;;;;2.50;1.85;;;;;;;15.05;96.49;98815.72;5075997;28;20219;-63
2023/11/05 09:40:14;;;;;;;3.20;2.30;;;;;;;15.00;98.04;98811.03;5075789;28;20033;-64
2023/11/05 09:43:01;;;;;;;2.05;1.85;;;;;;;15.02;96.40;98811.63;5075969;28;20345;-64
2023/11/05 09:45:28;;;;;;;2.63;1.80;;;;;;;15.06;97.70;98804.84;5075426;28;20064;-65
2023/11/05 09:47:56;;;;;;;1.63;1.52;;;;;;;14.97;90.15;98806.13;5074271;28;20089;-62
2023/11/05 09:50:24;;;;;;;2.85;1.50;;;;;;;15.00;92.91;98795.03;5075372;28;20032;-65
2023/11/05 09:52:49;;;;;;;1.75;1.50;;;;;;;15.12;95.64;98793.31;5072536;28;20036;-62
2023/11/05 09:55:15;;;;;;;4.15;2.05;;;;;;;15.21;95.43;98781.34;5075451;28;20044;-65
2023/11/05 09:57:40;;;;;;;2.90;1.70;;;;;;;15.29;95.58;98778.44;5075471;28;20288;-65
2023/11/05 10:00:09;;;;;;;1.63;1.30;;;;;;;15.39;93.12;98790.47;5075852;28;20039;-62
2023/11/05 10:02:57;;;;;;;3.10;1.50;;;;;;;15.36;87.11;98780.22;5074902;28;20031;-62
2023/11/05 10:05:29;;;;;;;0.73;0.73;;;;;;;15.17;80.73;98774.81;5075628;28;20082;-65
2023/11/05 10:07:55;;;;;;;1.15;1.05;;;;;;;15.31;83.03;98773.69;5074907;28;20037;-63
2023/11/05 10:10:21;;;;;;;1.42;1.33;;;;;;;15.37;89.78;98763.19;5074847;28;20074;-66
2023/11/05 10:12:48;;;;;;;3.08;1.25;;;;;;;15.45;88.48;98769.09;5074335;28;20036;-65
2023/11/05 10:15:14;;;;;;;2.58;1.50;;;;;;;15.47;88.74;98764.34;5073636;28;20053;-62
2023/11/05 10:17:39;;;;;;;2.20;1.75;;;;;;;15.59;92.45;98767.16;5073338;28;20041;-62
2023/11/05 10:20:06;;;;;;;2.95;2.10;;;;;;;15.66;92.73;98772.47;5073683;28;20046;-63
2023/11/05 10:22:32;;;;;;;1.80;1.25;;;;;;;15.66;89.50;98773.28;5073432;28;20044;-62
2023/11/05 10:24:58;;;;;;;2.33;1.63;;;;;;;15.73;88.47;98755.38;5073177;28;20039;-65
2023/11/05 10:27:31;;;;;;;1.90;1.30;;;;;;;15.86;88.25;98763.25;5073402;28;20230;-65
2023/11/05 10:29:57;;;;;;;3.30;1.70;;;;;;;16.01;89.99;98754.06;5073505;28;20234;-65
2023/11/05 10:32:27;;;;;;;2.13;1.30;;;;;;;16.03;86.65;98752.00;5073184;28;20280;-65
2023/11/05 10:34:55;;;;;;;1.42;1.00;;;;;;;15.97;83.66;98751.03;5073272;28;20238;-65
2023/11/05 10:37:21;;;;;;;1.10;0.95;;;;;;;16.01;83.63;98743.41;5074316;28;20067;-66
2023/11/05 10:39:47;;;;;;;2.60;1.23;;;;;;;16.08;82.56;98747.63;5076965;28;20210;-63
2023/11/05 10:42:13;;;;;;;3.47;1.35;;;;;;;16.13;80.70;98745.09;5077049;28;20078;-66
2023/11/05 10:44:45;;;;;;;1.83;0.95;;;;;;;16.19;81.95;98751.41;5076503;28;20372;-62
2023/11/05 10:47:12;;;;;;;1.38;1.23;;;;;;;16.19;84.21;98746.88;5076953;28;20028;-66
2023/11/05 10:49:39;;;;;;;1.55;1.10;;;;;;;16.26;84.50;98742.28;5077256;28;20034;-66
2023/11/05 10:52:07;;;;;;;1.58;1.10;;;;;;;16.28;82.24;98732.19;5077701;28;20285;-65
2023/11/05 10:54:39;;;;;;;2.92;1.00;;;;;;;16.29;82.77;98735.69;5077697;28;20064;-65
2023/11/05 10:57:43;;;;;;;0.98;0.98;;;;;;;16.26;81.59;98717.44;5077286;28;20036;-63
2023/11/05 11:00:29;;;;;;;2.25;0.70;;;;;;;16.34;83.13;98708.31;5077130;28;20677;-65
2023/11/05 11:02:58;;;;;;;0.85;0.50;;;;;;;16.32;79.07;98694.34;5076489;28;20334;-62
2023/11/05 11:05:43;;;;;;;0.63;0.50;;;;;;;16.29;77.90;98682.25;5076249;28;20032;-63
2023/11/05 11:08:12;;;;;;;0.50;0.50;;;;;;;16.31;79.05;98684.72;5075788;28;20226;-66
2023/11/05 11:10:40;;;;;;;1.15;0.40;;;;;;;16.29;81.11;98675.06;5076400;28;20032;-66
2023/11/05 11:13:12;;;;;;;0.82;0.50;;;;;;;16.38;79.98;98672.09;5076777;28;20043;-63
2023/11/05 11:15:39;;;;;;;0.55;0.38;;;;;;;16.44;79.29;98673.84;5076826;28;20048;-68
2023/11/05 11:18:21;;;;;;;0.55;0.40;;;;;;;16.45;78.96;98667.47;5074944;28;20028;-68
2023/11/05 11:20:54;;;;;;;0.40;0.40;;;;;;;16.58;77.55;98660.09;5077523;28;20032;-68
2023/11/05 11:23:25;;;;;;;0.47;0.47;;;;;;;16.67;77.51;98671.34;5077825;28;20048;-65
2023/11/05 11:25:59;;;;;;;1.77;0.50;;;;;;;16.64;76.69;98658.34;5077933;28;20051;-68